createdAt,value
2023-01-06T00:01:07.450Z,101061.66
2023-01-06T00:03:34.657Z,101057.38
2023-01-06T00:06:03.094Z,101051.53
2023-01-06T00:08:30.098Z,101048.56
2023-01-06T00:10:56.806Z,101036.16
2023-01-06T00:13:23.505Z,101038.81
2023-01-06T00:15:50.194Z,101043.09
2023-01-06T00:18:16.811Z,101042.41
2023-01-06T00:20:43.331Z,101045.16
2023-01-06T00:23:09.938Z,101043.66
2023-01-06T00:25:36.999Z,101038.19
2023-01-06T00:28:03.664Z,101038.13
2023-01-06T00:30:30.162Z,101030.97
2023-01-06T00:32:56.724Z,101028.56
2023-01-06T00:35:23.246Z,101028.16
2023-01-06T00:37:49.853Z,101023.34
2023-01-06T00:40:16.598Z,101023.22
2023-01-06T00:42:43.169Z,101017.59
2023-01-06T00:45:10.789Z,101008.16
2023-01-06T00:47:37.468Z,101010.63
2023-01-06T00:50:04.374Z,101011.91
2023-01-06T00:52:30.939Z,101012.25
2023-01-06T00:54:59.014Z,101011.06
2023-01-06T00:57:25.869Z,101012.84
2023-01-06T00:59:52.387Z,101008.53
2023-01-06T01:02:19.255Z,101006.34
2023-01-06T01:04:46.054Z,100997.59
2023-01-06T01:07:12.755Z,100995.91
2023-01-06T01:09:39.522Z,100993.78
2023-01-06T01:12:12.660Z,101003.19
2023-01-06T01:14:51.352Z,101003.56
2023-01-06T01:17:26.075Z,101006.72
2023-01-06T01:19:55.371Z,101002.59
2023-01-06T01:22:23.785Z,101002.94
2023-01-06T01:24:50.449Z,101008.91
2023-01-06T01:27:17.606Z,100999.56
2023-01-06T01:29:45.383Z,101009.16
2023-01-06T01:32:12.173Z,101017.91
2023-01-06T01:34:38.835Z,101007.09
2023-01-06T01:37:05.375Z,101004.56
2023-01-06T01:39:32.219Z,101000.81
2023-01-06T01:41:59.477Z,101007.31
2023-01-06T01:44:45.784Z,101000.28
2023-01-06T01:47:14.712Z,100998.25
2023-01-06T01:49:46.014Z,100995.50
2023-01-06T01:52:14.084Z,100997.19
2023-01-06T01:54:41.912Z,100998.13
2023-01-06T01:57:14.163Z,100987.94
2023-01-06T01:59:42.875Z,100996.44
2023-01-06T02:02:09.966Z,100991.88
2023-01-06T02:04:41.308Z,100994.38
2023-01-06T02:07:09.098Z,100984.41
2023-01-06T02:09:41.947Z,100994.13
2023-01-06T02:12:09.499Z,100998.72
2023-01-06T02:14:36.069Z,100997.00
2023-01-06T02:17:27.800Z,100987.47
2023-01-06T02:20:03.445Z,100983.75
2023-01-06T02:22:48.829Z,100983.88
2023-01-06T02:25:32.785Z,100974.25
2023-01-06T02:28:29.441Z,100968.38
2023-01-06T02:31:27.118Z,100966.78
2023-01-06T02:34:00.765Z,100965.44
2023-01-06T02:37:18.225Z,100952.19
2023-01-06T02:39:53.087Z,100959.94
2023-01-06T02:42:53.128Z,100950.81
2023-01-06T02:45:49.607Z,100952.38
2023-01-06T02:48:48.285Z,100952.28
2023-01-06T02:51:30.980Z,100949.72
2023-01-06T02:54:28.022Z,100946.16
2023-01-06T02:57:06.153Z,100943.41
2023-01-06T02:59:39.501Z,100939.75
2023-01-06T03:02:10.497Z,100942.00
2023-01-06T03:04:42.995Z,100931.03
2023-01-06T03:07:14.091Z,100937.47
2023-01-06T03:09:41.144Z,100926.22
2023-01-06T03:12:32.116Z,100929.78
2023-01-06T03:14:59.388Z,100921.75
2023-01-06T03:17:26.843Z,100926.88
2023-01-06T03:19:53.772Z,100921.81
2023-01-06T03:22:21.863Z,100911.69
2023-01-06T03:24:48.804Z,100907.88
2023-01-06T03:27:19.828Z,100901.53
2023-01-06T03:29:46.484Z,100909.28
2023-01-06T03:32:22.644Z,100911.63
2023-01-06T03:35:25.043Z,100903.44
2023-01-06T03:37:55.664Z,100908.69
2023-01-06T03:40:28.663Z,100905.34
2023-01-06T03:43:16.258Z,100902.41
2023-01-06T03:45:56.200Z,100897.72
2023-01-06T03:48:44.748Z,100900.88
2023-01-06T03:51:40.649Z,100888.34
2023-01-06T03:54:29.802Z,100907.94
2023-01-06T03:57:10.067Z,100895.22
2023-01-06T03:59:46.786Z,100882.91
2023-01-06T04:02:14.343Z,100871.63
2023-01-06T04:04:41.604Z,100863.88
2023-01-06T04:07:08.301Z,100863.63
2023-01-06T04:09:38.850Z,100866.41
2023-01-06T04:12:24.121Z,100863.69
2023-01-06T04:14:52.839Z,100873.91
2023-01-06T04:17:19.464Z,100869.75
2023-01-06T04:19:46.378Z,100866.16
2023-01-06T04:22:13.354Z,100857.03
2023-01-06T04:24:39.971Z,100846.66
2023-01-06T04:27:07.279Z,100842.28
2023-01-06T04:29:34.430Z,100835.69
2023-01-06T04:32:00.981Z,100832.84
2023-01-06T04:34:27.566Z,100827.97
2023-01-06T04:36:55.094Z,100819.97
2023-01-06T04:39:21.759Z,100820.84
2023-01-06T04:41:48.316Z,100819.78
2023-01-06T04:44:14.835Z,100818.91
2023-01-06T04:46:41.408Z,100819.69
2023-01-06T04:49:08.107Z,100809.66
2023-01-06T04:51:34.614Z,100784.66
2023-01-06T04:54:01.350Z,100799.16
2023-01-06T04:56:27.958Z,100797.25
2023-01-06T04:58:56.013Z,100802.38
2023-01-06T05:01:24.310Z,100803.63
2023-01-06T05:03:51.593Z,100796.63
2023-01-06T05:06:19.058Z,100805.16
2023-01-06T05:08:46.310Z,100794.41
2023-01-06T05:11:16.176Z,100788.50
2023-01-06T05:13:42.912Z,100789.75
2023-01-06T05:16:13.856Z,100790.00
2023-01-06T05:18:40.441Z,100795.72
2023-01-06T05:21:07.454Z,100792.22
2023-01-06T05:23:34.293Z,100796.28
2023-01-06T05:26:00.833Z,100799.19
2023-01-06T05:28:29.309Z,100794.69
2023-01-06T05:31:00.603Z,100804.81
2023-01-06T05:33:27.349Z,100799.69
2023-01-06T05:36:01.446Z,100797.75
2023-01-06T05:38:28.133Z,100803.97
2023-01-06T05:40:54.777Z,100803.09
2023-01-06T05:43:21.306Z,100799.22
2023-01-06T05:45:47.873Z,100792.94
2023-01-06T05:48:14.660Z,100796.09
2023-01-06T05:50:41.255Z,100800.28
2023-01-06T05:53:08.270Z,100791.41
2023-01-06T05:55:34.869Z,100785.47
2023-01-06T05:58:01.444Z,100788.09
2023-01-06T06:00:28.411Z,100786.16
2023-01-06T06:02:55.604Z,100786.38
2023-01-06T06:05:22.209Z,100791.00
2023-01-06T06:07:56.252Z,100792.28
2023-01-06T06:10:23.515Z,100794.88
2023-01-06T06:12:53.226Z,100789.47
2023-01-06T06:15:20.045Z,100778.72
2023-01-06T06:17:46.651Z,100787.56
2023-01-06T06:20:13.284Z,100780.56
2023-01-06T06:22:39.754Z,100784.38
2023-01-06T06:25:06.537Z,100779.94
2023-01-06T06:27:33.165Z,100789.06
2023-01-06T06:29:59.722Z,100781.63
2023-01-06T06:32:30.219Z,100771.41
2023-01-06T06:34:58.033Z,100770.09
2023-01-06T06:37:24.569Z,100762.56
2023-01-06T06:39:51.127Z,100774.41
2023-01-06T06:42:18.708Z,100771.25
2023-01-06T06:44:45.251Z,100778.91
2023-01-06T06:47:11.852Z,100778.34
2023-01-06T06:49:38.412Z,100778.31
2023-01-06T06:52:04.891Z,100779.88
2023-01-06T06:54:31.515Z,100783.38
2023-01-06T06:56:58.148Z,100779.19
2023-01-06T06:59:24.725Z,100774.06
2023-01-06T07:01:51.389Z,100772.59
2023-01-06T07:04:18.128Z,100767.06
2023-01-06T07:06:44.664Z,100755.97
2023-01-06T07:09:11.241Z,100765.13
2023-01-06T07:11:37.814Z,100768.53
2023-01-06T07:14:04.356Z,100760.00
2023-01-06T07:16:31.686Z,100760.47
2023-01-06T07:18:58.280Z,100760.47
2023-01-06T07:21:24.848Z,100761.75
2023-01-06T07:23:51.565Z,100755.78
2023-01-06T07:26:18.138Z,100760.47
2023-01-06T07:28:45.119Z,100761.72
2023-01-06T07:31:11.760Z,100759.34
2023-01-06T07:33:38.359Z,100756.59
2023-01-06T07:36:05.195Z,100763.44
2023-01-06T07:38:31.754Z,100774.03
2023-01-06T07:41:01.296Z,100768.47
2023-01-06T07:43:28.771Z,100778.25
2023-01-06T07:45:55.417Z,100774.88
2023-01-06T07:48:22.134Z,100764.06
2023-01-06T07:50:48.853Z,100773.19
2023-01-06T07:53:15.466Z,100775.56
2023-01-06T07:55:42.073Z,100770.44
2023-01-06T07:58:09.815Z,100775.78
2023-01-06T08:00:37.440Z,100761.94
2023-01-06T08:03:05.978Z,100761.28
2023-01-06T08:05:32.933Z,100753.19
2023-01-06T08:07:59.531Z,100762.13
2023-01-06T08:10:26.119Z,100758.50
2023-01-06T08:12:52.731Z,100774.03
2023-01-06T08:15:19.297Z,100769.97
2023-01-06T08:17:45.937Z,100769.34
2023-01-06T08:20:12.726Z,100774.03
2023-01-06T08:22:39.290Z,100781.25
2023-01-06T08:25:06.976Z,100787.41
2023-01-06T08:27:33.608Z,100795.72
2023-01-06T08:30:00.336Z,100797.91
2023-01-06T08:32:26.933Z,100796.59
2023-01-06T08:34:53.629Z,100787.66
2023-01-06T08:37:20.448Z,100801.91
2023-01-06T08:39:47.260Z,100819.94
2023-01-06T08:42:13.913Z,100822.91
2023-01-06T08:44:40.622Z,100821.22
2023-01-06T08:47:07.436Z,100821.63
2023-01-06T08:49:34.028Z,100805.44
2023-01-06T08:52:00.648Z,100812.69
2023-01-06T08:54:28.588Z,100815.22
2023-01-06T08:56:55.745Z,100821.16
2023-01-06T08:59:22.702Z,100830.59
2023-01-06T09:01:49.350Z,100829.06
2023-01-06T09:04:16.070Z,100829.19
2023-01-06T09:06:43.515Z,100829.66
2023-01-06T09:09:13.881Z,100827.44
2023-01-06T09:11:42.369Z,100827.66
2023-01-06T09:14:10.533Z,100825.69
2023-01-06T09:16:37.228Z,100821.28
2023-01-06T09:19:04.161Z,100837.44
2023-01-06T09:21:30.857Z,100833.19
2023-01-06T09:23:57.476Z,100840.81
2023-01-06T09:26:24.697Z,100850.34
2023-01-06T09:28:51.277Z,100849.69
2023-01-06T09:31:18.398Z,100862.09
2023-01-06T09:33:45.200Z,100864.41
2023-01-06T09:36:12.047Z,100868.03
2023-01-06T09:38:38.992Z,100871.88
2023-01-06T09:41:27.513Z,100870.81
2023-01-06T09:44:04.349Z,100876.47
2023-01-06T09:46:36.583Z,100887.72
2023-01-06T09:49:37.411Z,100890.06
2023-01-06T09:52:17.608Z,100891.03
2023-01-06T09:55:07.744Z,100881.72
2023-01-06T09:57:50.644Z,100879.59
2023-01-06T10:00:29.393Z,100870.50
2023-01-06T10:02:57.948Z,100873.25
2023-01-06T10:05:49.064Z,100878.13
2023-01-06T10:08:34.246Z,100869.03
2023-01-06T10:11:19.476Z,100892.84
2023-01-06T10:14:01.193Z,100892.41
2023-01-06T10:16:34.037Z,100892.84
2023-01-06T10:19:28.229Z,100882.81
2023-01-06T10:22:23.048Z,100899.47
2023-01-06T10:25:18.750Z,100894.09
2023-01-06T10:28:14.724Z,100902.75
2023-01-06T10:30:46.089Z,100911.31
2023-01-06T10:35:57.489Z,100914.75
2023-01-06T10:38:37.212Z,100913.72
2023-01-06T10:41:19.958Z,100903.91
2023-01-06T10:43:46.625Z,100895.84
2023-01-06T10:46:15.407Z,100899.84
2023-01-06T10:48:42.891Z,100897.31
2023-01-06T10:51:30.735Z,100903.91
2023-01-06T10:54:00.521Z,100908.78
2023-01-06T10:56:29.065Z,100906.31
2023-01-06T10:59:02.881Z,100915.41
2023-01-06T11:01:30.050Z,100925.06
2023-01-06T11:04:13.433Z,100912.75
2023-01-06T11:06:50.056Z,100912.81
2023-01-06T11:09:41.933Z,100914.31
2023-01-06T11:12:16.457Z,100907.75
2023-01-06T11:14:50.226Z,100905.19
2023-01-06T11:17:20.475Z,100910.75
2023-01-06T11:20:09.107Z,100916.69
2023-01-06T11:22:38.568Z,100900.97
2023-01-06T11:25:20.134Z,100908.19
2023-01-06T11:28:09.601Z,100897.13
2023-01-06T11:30:47.718Z,100899.03
2023-01-06T11:33:18.118Z,100897.09
2023-01-06T11:35:47.787Z,100893.69
2023-01-06T11:38:16.807Z,100893.06
2023-01-06T11:40:50.428Z,100896.25
2023-01-06T11:43:32.979Z,100889.88
2023-01-06T11:46:03.893Z,100896.28
2023-01-06T11:48:42.639Z,100896.25
2023-01-06T11:51:09.452Z,100899.66
2023-01-06T11:53:40.413Z,100906.25
2023-01-06T11:56:14.329Z,100903.28
2023-01-06T11:58:56.155Z,100905.41
2023-01-06T12:01:41.632Z,100908.19
2023-01-06T12:04:24.005Z,100902.41
2023-01-06T12:06:56.256Z,100905.56
2023-01-06T12:09:46.212Z,100904.28
2023-01-06T12:12:27.260Z,100909.41
2023-01-06T12:14:54.425Z,100910.25
2023-01-06T12:17:27.088Z,100904.75
2023-01-06T12:20:15.451Z,100904.09
2023-01-06T12:22:49.419Z,100905.63
2023-01-06T12:25:30.884Z,100897.09
2023-01-06T12:28:05.391Z,100891.75
2023-01-06T12:30:46.629Z,100903.91
2023-01-06T12:33:21.174Z,100896.03
2023-01-06T12:35:50.958Z,100902.63
2023-01-06T12:38:38.729Z,100896.69
2023-01-06T12:41:12.417Z,100897.09
2023-01-06T12:43:43.413Z,100895.31
2023-01-06T12:46:18.142Z,100895.31
2023-01-06T12:48:57.843Z,100894.03
2023-01-06T12:51:42.325Z,100891.75
2023-01-06T12:54:14.771Z,100891.81
2023-01-06T12:56:54.150Z,100891.38
2023-01-06T12:59:34.045Z,100890.31
2023-01-06T13:02:06.779Z,100893.06
2023-01-06T13:04:56.795Z,100900.13
2023-01-06T13:07:26.536Z,100897.94
2023-01-06T13:09:56.528Z,100894.13
2023-01-06T13:12:41.109Z,100903.91
2023-01-06T13:15:10.332Z,100906.91
2023-01-06T13:17:53.597Z,100901.56
2023-01-06T13:20:29.216Z,100897.13
2023-01-06T13:23:24.886Z,100907.53
2023-01-06T13:26:07.326Z,100887.31
2023-01-06T13:28:39.871Z,100886.25
2023-01-06T13:31:29.210Z,100880.94
2023-01-06T13:34:23.576Z,100872.50
2023-01-06T13:37:24.020Z,100878.94
2023-01-06T13:39:58.589Z,100877.44
2023-01-06T13:42:34.435Z,100872.28
2023-01-06T13:45:01.900Z,100886.00
2023-01-06T13:47:30.390Z,100888.53
2023-01-06T13:49:58.537Z,100885.69
2023-01-06T13:52:28.211Z,100886.63
2023-01-06T13:55:01.347Z,100887.72
2023-01-06T13:57:30.916Z,100881.06
2023-01-06T14:00:00.614Z,100870.56
2023-01-06T14:02:37.748Z,100870.34
2023-01-06T14:05:29.958Z,100889.38
2023-01-06T14:08:14.938Z,100892.84
2023-01-06T14:10:43.657Z,100894.34
2023-01-06T14:13:24.332Z,100900.97
2023-01-06T14:15:56.805Z,100905.84
2023-01-06T14:18:52.198Z,100909.03
2023-01-06T14:21:27.811Z,100900.50
2023-01-06T14:23:56.676Z,100904.13
2023-01-06T14:26:45.302Z,100895.78
2023-01-06T14:29:39.786Z,100897.09
2023-01-06T14:32:29.706Z,100885.53
2023-01-06T14:35:00.120Z,100890.09
2023-01-06T14:37:38.821Z,100886.28
2023-01-06T14:40:07.017Z,100889.41
2023-01-06T14:42:38.814Z,100887.97
2023-01-06T14:45:17.759Z,100885.84
2023-01-06T14:47:52.467Z,100897.13
2023-01-06T14:50:46.031Z,100892.84
2023-01-06T14:53:24.764Z,100900.03
2023-01-06T14:55:52.095Z,100897.53
2023-01-06T14:58:45.199Z,100903.06
2023-01-06T15:01:35.458Z,100905.00
2023-01-06T15:04:04.146Z,100905.41
2023-01-06T15:06:31.492Z,100907.91
2023-01-06T15:09:18.021Z,100900.06
2023-01-06T15:11:45.280Z,100896.28
2023-01-06T15:14:33.367Z,100902.44
2023-01-06T15:17:05.273Z,100890.28
2023-01-06T15:19:34.342Z,100893.28
2023-01-06T15:22:05.876Z,100894.97
2023-01-06T15:24:35.438Z,100894.97
2023-01-06T15:27:13.684Z,100892.41
2023-01-06T15:29:56.407Z,100897.53
2023-01-06T15:32:27.609Z,100905.19
2023-01-06T15:34:57.994Z,100913.25
2023-01-06T15:37:27.025Z,100905.94
2023-01-06T15:39:54.037Z,100916.00
2023-01-06T15:42:25.425Z,100904.44
2023-01-06T15:45:00.236Z,100892.00
2023-01-06T15:47:37.053Z,100893.09
2023-01-06T15:50:07.586Z,100896.13
2023-01-06T15:53:04.070Z,100899.53
2023-01-06T15:55:34.879Z,100896.47
2023-01-06T15:58:24.761Z,100909.88
2023-01-06T16:01:15.829Z,100916.47
2023-01-06T16:03:49.113Z,100904.34
2023-01-06T16:06:26.167Z,100907.63
2023-01-06T16:08:52.953Z,100896.13
2023-01-06T16:11:48.465Z,100897.41
2023-01-06T16:14:30.879Z,100908.78
2023-01-06T16:17:11.847Z,100905.50
2023-01-06T16:19:59.856Z,100905.09
2023-01-06T16:22:34.637Z,100905.31
2023-01-06T16:25:04.200Z,100910.16
2023-01-06T16:27:31.352Z,100909.06
2023-01-06T16:30:08.493Z,100910.53
2023-01-06T16:32:42.741Z,100922.38
2023-01-06T16:35:27.209Z,100916.06
2023-01-06T16:37:54.051Z,100923.69
2023-01-06T16:40:23.655Z,100919.59
2023-01-06T16:42:55.897Z,100917.66
2023-01-06T16:45:28.110Z,100924.38
2023-01-06T16:47:55.917Z,100919.59
2023-01-06T16:50:40.493Z,100928.94
2023-01-06T16:53:10.059Z,100924.75
2023-01-06T16:55:38.627Z,100931.78
2023-01-06T16:58:16.372Z,100923.81
2023-01-06T17:00:47.886Z,100928.03
2023-01-06T17:03:17.033Z,100927.59
2023-01-06T17:05:44.064Z,100921.13
2023-01-06T17:08:15.801Z,100920.81
2023-01-06T17:10:43.102Z,100932.41
2023-01-06T17:13:35.345Z,100924.38
2023-01-06T17:16:14.584Z,100926.50
2023-01-06T17:18:59.267Z,100931.59
2023-01-06T17:21:34.089Z,100934.53
2023-01-06T17:24:14.374Z,100932.41
2023-01-06T17:26:55.074Z,100936.03
2023-01-06T17:29:22.466Z,100942.91
2023-01-06T17:31:51.858Z,100942.44
2023-01-06T17:34:21.879Z,100940.31
2023-01-06T17:36:53.126Z,100953.63
2023-01-06T17:39:26.488Z,100939.09
2023-01-06T17:42:05.239Z,100944.28
2023-01-06T17:44:37.576Z,100940.28
2023-01-06T17:47:16.500Z,100937.38
2023-01-06T17:49:55.062Z,100940.63
2023-01-06T17:52:23.900Z,100945.38
2023-01-06T17:55:28.235Z,100942.88
2023-01-06T17:57:57.931Z,100941.06
2023-01-06T18:00:29.748Z,100932.22
2023-01-06T18:03:01.921Z,100937.72
2023-01-06T18:05:30.432Z,100942.38
2023-01-06T18:08:13.397Z,100927.75
2023-01-06T18:10:43.905Z,100933.72
2023-01-06T18:13:23.771Z,100930.09
2023-01-06T18:15:53.301Z,100933.09
2023-01-06T18:18:24.352Z,100934.13
2023-01-06T18:21:00.750Z,100933.72
2023-01-06T18:23:27.822Z,100927.56
2023-01-06T18:26:01.334Z,100941.41
2023-01-06T18:28:29.655Z,100946.69
2023-01-06T18:30:58.988Z,100946.66
2023-01-06T18:33:26.229Z,100945.63
2023-01-06T18:35:57.212Z,100939.69
2023-01-06T18:38:29.939Z,100934.75
2023-01-06T18:40:56.647Z,100938.56
2023-01-06T18:43:30.130Z,100938.09
2023-01-06T18:46:01.875Z,100935.69
2023-01-06T18:48:32.985Z,100929.63
2023-01-06T18:51:01.401Z,100935.22
2023-01-06T18:53:47.125Z,100931.19
2023-01-06T18:56:18.667Z,100941.59
2023-01-06T18:58:52.316Z,100945.56
2023-01-06T19:01:26.279Z,100939.53
2023-01-06T19:04:03.109Z,100934.31
2023-01-06T19:06:35.578Z,100937.97
2023-01-06T19:09:10.069Z,100948.13
2023-01-06T19:11:37.004Z,100945.19
2023-01-06T19:14:10.545Z,100937.34
2023-01-06T19:16:45.392Z,100938.59
2023-01-06T19:19:27.242Z,100935.88
2023-01-06T19:22:06.121Z,100941.81
2023-01-06T19:24:39.100Z,100945.66
2023-01-06T19:27:19.489Z,100938.63
2023-01-06T19:29:46.046Z,100937.78
2023-01-06T19:32:14.858Z,100932.88
2023-01-06T19:34:41.563Z,100934.59
2023-01-06T19:37:18.180Z,100931.19
2023-01-06T19:39:50.126Z,100928.84
2023-01-06T19:42:18.831Z,100924.34
2023-01-06T19:44:49.248Z,100931.78
2023-01-06T19:47:27.571Z,100920.09
2023-01-06T19:50:06.911Z,100918.00
2023-01-06T19:52:41.125Z,100921.16
2023-01-06T19:55:18.836Z,100921.31
2023-01-06T19:58:15.809Z,100916.47
2023-01-06T20:00:51.148Z,100909.44
2023-01-06T20:03:37.173Z,100906.06
2023-01-06T20:06:04.427Z,100911.16
2023-01-06T20:08:30.972Z,100901.56
2023-01-06T20:10:57.491Z,100912.47
2023-01-06T20:13:24.129Z,100916.50
2023-01-06T20:15:50.737Z,100907.53
2023-01-06T20:18:17.298Z,100900.88
2023-01-06T20:20:43.907Z,100911.53
2023-01-06T20:23:11.149Z,100909.03
2023-01-06T20:25:37.732Z,100899.78
2023-01-06T20:28:04.389Z,100898.78
2023-01-06T20:30:30.916Z,100910.53
2023-01-06T20:32:57.579Z,100905.63
2023-01-06T20:35:24.244Z,100906.44
2023-01-06T20:37:50.801Z,100895.59
2023-01-06T20:40:18.343Z,100899.66
2023-01-06T20:42:45.135Z,100895.38
2023-01-06T20:45:12.828Z,100894.13
2023-01-06T20:47:39.359Z,100898.63
2023-01-06T20:50:07.404Z,100894.25
2023-01-06T20:52:34.580Z,100894.63
2023-01-06T20:55:01.211Z,100896.50
2023-01-06T20:57:27.884Z,100898.56
2023-01-06T20:59:54.457Z,100899.00
2023-01-06T21:02:21.106Z,100899.84
2023-01-06T21:04:47.784Z,100897.09
2023-01-06T21:07:14.560Z,100900.72
2023-01-06T21:09:41.268Z,100897.75
2023-01-06T21:12:08.019Z,100905.38
2023-01-06T21:14:35.315Z,100907.66
2023-01-06T21:17:03.695Z,100902.97
2023-01-06T21:19:30.340Z,100907.84
2023-01-06T21:21:56.933Z,100908.69
2023-01-06T21:24:23.707Z,100908.44
2023-01-06T21:26:50.269Z,100898.13
2023-01-06T21:29:16.917Z,100909.44
2023-01-06T21:31:43.895Z,100905.41
2023-01-06T21:34:10.736Z,100905.38
2023-01-06T21:36:37.309Z,100905.81
2023-01-06T21:39:07.079Z,100908.97
2023-01-06T21:41:51.998Z,100900.06
2023-01-06T21:44:18.644Z,100917.72
2023-01-06T21:46:45.368Z,100908.06
2023-01-06T21:49:12.288Z,100909.34
2023-01-06T21:51:39.980Z,100907.63
2023-01-06T21:54:06.867Z,100907.63
2023-01-06T21:56:35.671Z,100904.75
2023-01-06T21:59:02.375Z,100902.84
2023-01-06T22:01:29.782Z,100904.69
2023-01-06T22:03:56.502Z,100903.19
2023-01-06T22:06:23.985Z,100909.16
2023-01-06T22:08:53.153Z,100912.41
2023-01-06T22:11:20.002Z,100912.38
2023-01-06T22:13:47.077Z,100907.94
2023-01-06T22:16:13.744Z,100908.38
2023-01-06T22:18:40.455Z,100901.34
2023-01-06T22:21:07.263Z,100903.91
2023-01-06T22:23:34.708Z,100902.84
2023-01-06T22:26:01.259Z,100900.50
2023-01-06T22:28:27.938Z,100899.22
2023-01-06T22:30:55.054Z,100893.69
2023-01-06T22:33:21.752Z,100884.34
2023-01-06T22:35:48.294Z,100899.66
2023-01-06T22:38:15.280Z,100898.72
2023-01-06T22:40:41.832Z,100902.97
2023-01-06T22:43:08.498Z,100897.81
2023-01-06T22:45:35.129Z,100907.81
2023-01-06T22:48:02.208Z,100906.03
2023-01-06T22:50:28.752Z,100905.63
2023-01-06T22:52:56.224Z,100910.91
2023-01-06T22:55:23.035Z,100905.81
2023-01-06T22:57:49.665Z,100909.69
2023-01-06T23:00:18.629Z,100905.84
2023-01-06T23:02:45.629Z,100905.22
2023-01-06T23:05:12.532Z,100913.50
2023-01-06T23:07:41.403Z,100897.75
2023-01-06T23:10:10.195Z,100904.13
2023-01-06T23:12:38.479Z,100897.75
2023-01-06T23:15:05.840Z,100902.22
2023-01-06T23:17:32.829Z,100903.72
2023-01-06T23:19:59.462Z,100900.72
2023-01-06T23:22:26.051Z,100896.28
2023-01-06T23:24:52.856Z,100894.56
2023-01-06T23:27:19.509Z,100898.63
2023-01-06T23:29:46.234Z,100896.25
2023-01-06T23:32:12.925Z,100894.97
2023-01-06T23:34:39.516Z,100884.13
2023-01-06T23:37:06.075Z,100880.91
2023-01-06T23:39:32.591Z,100884.78
2023-01-06T23:41:59.192Z,100880.06
2023-01-06T23:44:25.855Z,100886.03
2023-01-06T23:46:52.413Z,100888.59
2023-01-06T23:49:19.069Z,100877.94
2023-01-06T23:51:45.740Z,100877.06
2023-01-06T23:54:12.930Z,100881.78
2023-01-06T23:56:39.965Z,100880.28
2023-01-06T23:59:08.636Z,100877.69
